Time;durP1;ratioP1;P1;durP2;ratioP2;P2;SDS_P1;SDS_P2;PMS_P1;PMS_P2;Temp;Humidity;BMP_temperature;BMP_pressure;BME280_temperature;BME280_humidity;BME280_pressure;Samples;Min_cycle;Max_cycle;Signal;HPM_P1;HPM_P2
2023/05/24 00:00:11;;;;;;;18.43;4.37;;;8.60;99.90;;;;;;5016760;28;20220;-64
2023/05/24 00:02:40;;;;;;;17.70;4.53;;;8.60;99.90;;;;;;5023586;28;20756;-64
2023/05/24 00:05:08;;;;;;;23.90;4.47;;;8.50;99.90;;;;;;5010755;28;20965;-64
2023/05/24 00:07:35;;;;;;;16.70;4.70;;;8.50;99.90;;;;;;5025535;28;20698;-64
2023/05/24 00:10:02;;;;;;;15.33;4.63;;;8.50;99.90;;;;;;5040505;28;20216;-64
2023/05/24 00:12:30;;;;;;;16.57;4.57;;;8.50;99.90;;;;;;5028195;28;20678;-65
2023/05/24 00:14:57;;;;;;;17.67;4.50;;;8.50;99.90;;;;;;5021176;28;20287;-64
2023/05/24 00:17:24;;;;;;;14.30;4.67;;;8.50;99.90;;;;;;5011880;28;20204;-64
2023/05/24 00:19:52;;;;;;;15.45;3.90;;;8.50;99.90;;;;;;5045565;28;20208;-65
2023/05/24 00:22:19;;;;;;;24.60;5.10;;;8.60;99.90;;;;;;5001919;28;20732;-65
2023/05/24 00:24:46;;;;;;;18.53;4.37;;;8.50;99.90;;;;;;5036184;28;21200;-64
2023/05/24 00:27:13;;;;;;;16.87;4.60;;;8.50;99.90;;;;;;5034181;28;20227;-64
2023/05/24 00:29:41;;;;;;;25.90;5.23;;;8.50;99.90;;;;;;5040802;28;20642;-64
2023/05/24 00:32:08;;;;;;;20.53;5.37;;;8.50;99.90;;;;;;5023115;28;20197;-64
2023/05/24 00:34:35;;;;;;;17.87;4.37;;;8.50;99.90;;;;;;5023568;28;20224;-64
2023/05/24 00:37:02;;;;;;;27.10;5.20;;;8.50;99.90;;;;;;4994142;28;20219;-64
2023/05/24 00:39:28;;;;;;;21.20;4.73;;;8.50;99.90;;;;;;5027967;28;21144;-64
2023/05/24 00:41:55;;;;;;;14.87;3.80;;;8.50;99.90;;;;;;5026664;28;20209;-64
2023/05/24 00:44:22;;;;;;;16.90;4.63;;;8.50;99.90;;;;;;5030531;28;20224;-65
2023/05/24 00:46:50;;;;;;;17.37;4.70;;;8.50;99.90;;;;;;5023087;28;20209;-65
2023/05/24 00:49:17;;;;;;;24.30;5.10;;;8.60;99.90;;;;;;5029094;28;20228;-64
2023/05/24 00:51:44;;;;;;;16.77;4.20;;;8.50;99.90;;;;;;5005379;28;21388;-64
2023/05/24 00:54:12;;;;;;;19.57;5.20;;;8.60;99.90;;;;;;5036493;28;20201;-65
2023/05/24 00:56:39;;;;;;;25.90;5.37;;;8.50;99.90;;;;;;5031058;28;20299;-64
2023/05/24 00:59:06;;;;;;;21.63;5.27;;;8.50;99.90;;;;;;5027651;28;20216;-64
2023/05/24 01:01:34;;;;;;;24.40;5.67;;;8.50;99.90;;;;;;5027132;28;20717;-64
2023/05/24 01:04:02;;;;;;;19.30;4.63;;;8.50;99.90;;;;;;5010141;28;20478;-64
2023/05/24 01:06:29;;;;;;;22.80;4.77;;;8.50;99.90;;;;;;5018448;28;20212;-64
2023/05/24 01:09:13;;;;;;;12.67;4.57;;;8.60;99.90;;;;;;4999612;28;20224;-64
2023/05/24 01:11:53;;;;;;;19.43;4.17;;;8.60;99.90;;;;;;5021663;28;20198;-64
2023/05/24 01:14:28;;;;;;;15.30;4.87;;;8.60;99.90;;;;;;5045531;28;20196;-65
2023/05/24 01:17:03;;;;;;;16.50;4.63;;;8.60;99.90;;;;;;5034047;28;20197;-64
2023/05/24 01:19:47;;;;;;;19.40;4.33;;;8.60;99.90;;;;;;5025580;28;20209;-64
2023/05/24 01:22:36;;;;;;;21.50;5.23;;;8.70;99.90;;;;;;5003518;28;20224;-64
2023/05/24 01:25:07;;;;;;;12.60;4.03;;;8.70;99.90;;;;;;5029056;28;20208;-64
2023/05/24 01:27:37;;;;;;;18.63;5.13;;;8.70;99.90;;;;;;5030881;28;20828;-64
2023/05/24 01:30:04;;;;;;;14.63;4.40;;;8.70;99.90;;;;;;5031795;28;20209;-64
2023/05/24 01:32:32;;;;;;;16.10;4.63;;;8.70;99.90;;;;;;5033986;28;20682;-65
2023/05/24 01:34:59;;;;;;;22.53;4.80;;;8.70;99.90;;;;;;4989219;28;1055343;-65
2023/05/24 01:37:26;;;;;;;24.37;5.13;;;8.70;99.90;;;;;;5037565;28;20201;-65
2023/05/24 01:39:53;;;;;;;11.50;3.97;;;8.70;99.90;;;;;;4994968;28;20639;-64
2023/05/24 01:42:26;;;;;;;24.43;5.67;;;8.70;99.90;;;;;;5017548;28;20203;-65
2023/05/24 01:45:03;;;;;;;19.17;4.73;;;8.70;99.90;;;;;;5035285;28;20232;-64
2023/05/24 01:47:42;;;;;;;23.20;5.17;;;8.60;99.90;;;;;;5024782;28;20197;-64
2023/05/24 01:50:17;;;;;;;19.10;4.80;;;8.60;99.90;;;;;;5026295;28;20808;-64
2023/05/24 01:52:45;;;;;;;15.37;5.30;;;8.80;99.90;;;;;;5033010;28;20197;-65
2023/05/24 01:55:15;;;;;;;20.30;4.27;;;8.80;99.90;;;;;;5007990;28;20205;-65
2023/05/24 01:57:44;;;;;;;16.83;4.57;;;8.80;99.90;;;;;;5018469;28;20219;-64
2023/05/24 02:00:15;;;;;;;23.67;5.13;;;8.80;99.90;;;;;;5039647;28;20201;-64
2023/05/24 02:02:42;;;;;;;17.60;4.53;;;8.80;99.90;;;;;;5019357;28;20209;-65
2023/05/24 02:05:10;;;;;;;19.47;4.77;;;8.80;99.90;;;;;;5017130;28;20296;-64
2023/05/24 02:07:37;;;;;;;15.63;4.03;;;8.80;99.90;;;;;;5033068;28;20200;-64
2023/05/24 02:10:04;;;;;;;26.00;4.90;;;8.80;99.90;;;;;;5008223;28;20570;-65
2023/05/24 02:12:31;;;;;;;21.27;5.87;;;8.80;99.90;;;;;;5027408;28;20209;-65
2023/05/24 02:14:59;;;;;;;15.17;4.40;;;8.70;99.90;;;;;;5031902;28;20211;-65
2023/05/24 02:17:27;;;;;;;20.10;3.93;;;8.90;99.90;;;;;;5028251;28;25155;-64
2023/05/24 02:19:53;;;;;;;13.23;4.30;;;8.90;99.90;;;;;;5022411;28;20213;-65
2023/05/24 02:22:21;;;;;;;16.33;5.07;;;8.90;99.90;;;;;;5044089;28;20194;-64
2023/05/24 02:24:48;;;;;;;19.07;3.93;;;8.90;99.90;;;;;;5010388;28;21245;-65
2023/05/24 02:27:15;;;;;;;22.63;4.77;;;8.90;99.90;;;;;;5039525;28;20927;-64
2023/05/24 02:29:41;;;;;;;29.57;5.63;;;8.90;99.90;;;;;;5027394;28;20233;-64
2023/05/24 02:32:08;;;;;;;15.33;4.57;;;8.80;99.90;;;;;;5039019;28;20206;-65
2023/05/24 02:34:36;;;;;;;20.73;4.63;;;8.80;99.90;;;;;;5023331;28;20228;-64
2023/05/24 02:37:03;;;;;;;18.45;5.00;;;8.80;99.90;;;;;;5035475;28;20197;-64
2023/05/24 02:39:30;;;;;;;14.50;4.43;;;8.90;99.90;;;;;;5043691;28;20636;-64
2023/05/24 02:41:57;;;;;;;17.83;4.63;;;8.90;99.90;;;;;;5005032;28;20300;-64
2023/05/24 02:44:24;;;;;;;23.43;5.27;;;8.80;99.90;;;;;;5024530;28;20221;-65
2023/05/24 02:46:50;;;;;;;22.53;4.43;;;8.80;99.90;;;;;;5037591;28;20200;-65
2023/05/24 02:49:17;;;;;;;16.43;4.43;;;8.80;99.90;;;;;;5030208;28;20236;-64
2023/05/24 02:51:45;;;;;;;17.40;3.97;;;8.80;99.90;;;;;;5038138;28;20285;-64
2023/05/24 02:54:12;;;;;;;16.63;4.23;;;8.90;99.90;;;;;;5047533;28;20201;-64
2023/05/24 02:56:39;;;;;;;16.33;4.43;;;8.80;99.90;;;;;;5006350;28;20198;-64
2023/05/24 02:59:06;;;;;;;17.10;3.70;;;8.90;99.90;;;;;;5030540;28;20205;-64
2023/05/24 03:01:34;;;;;;;17.50;4.33;;;8.90;99.90;;;;;;5033932;28;20200;-65
2023/05/24 03:04:01;;;;;;;17.25;4.13;;;8.80;99.90;;;;;;5039063;28;20202;-64
2023/05/24 03:06:28;;;;;;;19.40;5.45;;;8.90;99.90;;;;;;5028558;28;20205;-64
2023/05/24 03:08:57;;;;;;;16.27;4.93;;;8.90;99.90;;;;;;5040231;28;20254;-64
2023/05/24 03:11:25;;;;;;;18.33;5.07;;;9.00;99.90;;;;;;5020623;28;21566;-64
2023/05/24 03:13:51;;;;;;;11.80;3.83;;;8.90;99.90;;;;;;5041253;28;20287;-65
2023/05/24 03:16:19;;;;;;;17.77;4.23;;;8.90;99.90;;;;;;5034154;28;20211;-64
2023/05/24 03:18:49;;;;;;;18.20;4.60;;;8.90;99.90;;;;;;5047092;28;20676;-64
2023/05/24 03:21:16;;;;;;;18.23;4.50;;;8.90;99.90;;;;;;5039352;28;20270;-64
2023/05/24 03:23:43;;;;;;;17.17;4.63;;;8.90;99.90;;;;;;5032922;28;20209;-64
2023/05/24 03:26:12;;;;;;;15.90;4.90;;;8.90;99.90;;;;;;5040644;28;20205;-64
2023/05/24 03:28:39;;;;;;;16.70;4.03;;;9.00;99.90;;;;;;5011752;28;20690;-64
2023/05/24 03:31:06;;;;;;;13.70;4.05;;;8.90;99.90;;;;;;5029433;28;20283;-64
2023/05/24 03:33:33;;;;;;;15.60;4.40;;;9.00;99.90;;;;;;5037888;28;20197;-64
2023/05/24 03:36:00;;;;;;;19.40;5.10;;;9.00;99.90;;;;;;5043352;28;20600;-64
2023/05/24 03:38:26;;;;;;;18.43;4.23;;;9.00;99.90;;;;;;5016402;28;20245;-64
2023/05/24 03:40:53;;;;;;;12.82;4.20;;;9.00;99.90;;;;;;5031898;28;20217;-65
2023/05/24 03:43:21;;;;;;;17.67;4.43;;;8.90;99.90;;;;;;4997911;28;20212;-64
2023/05/24 03:45:48;;;;;;;15.23;4.27;;;8.90;99.90;;;;;;5027175;28;20205;-65
2023/05/24 03:48:15;;;;;;;21.93;6.23;;;8.90;99.90;;;;;;5023990;28;20212;-64
2023/05/24 03:50:42;;;;;;;18.33;4.13;;;8.90;99.90;;;;;;5021603;28;20213;-64
2023/05/24 03:53:09;;;;;;;16.70;4.33;;;8.90;99.90;;;;;;5015441;28;20216;-64
2023/05/24 03:55:35;;;;;;;13.97;3.83;;;8.90;99.90;;;;;;5030663;28;20205;-64
2023/05/24 03:58:02;;;;;;;12.27;4.30;;;9.00;99.90;;;;;;4998718;28;20571;-64
2023/05/24 04:00:31;;;;;;;13.57;5.30;;;9.00;99.90;;;;;;5011133;28;20232;-64
2023/05/24 04:02:58;;;;;;;17.93;4.07;;;9.00;99.90;;;;;;5014111;28;20200;-64
2023/05/24 04:05:28;;;;;;;20.57;4.13;;;8.90;99.90;;;;;;5018127;28;20228;-64
2023/05/24 04:07:55;;;;;;;21.20;4.80;;;9.00;99.90;;;;;;5044074;28;20215;-64
2023/05/24 04:10:22;;;;;;;17.90;4.03;;;8.90;99.90;;;;;;5013032;28;20267;-64
2023/05/24 04:12:49;;;;;;;14.23;3.67;;;8.90;99.90;;;;;;5029795;28;20223;-64
2023/05/24 04:15:16;;;;;;;14.47;3.87;;;8.90;99.90;;;;;;4998382;28;20258;-64
2023/05/24 04:17:45;;;;;;;14.63;4.10;;;9.00;99.90;;;;;;5013725;28;20985;-64
2023/05/24 04:20:12;;;;;;;19.13;5.23;;;9.00;99.90;;;;;;5021783;28;20701;-64
2023/05/24 04:22:39;;;;;;;20.83;5.30;;;9.00;99.90;;;;;;5032825;28;20198;-64
2023/05/24 04:25:08;;;;;;;16.40;4.20;;;9.00;99.90;;;;;;5020883;28;20209;-64
2023/05/24 04:27:35;;;;;;;23.57;4.70;;;9.00;99.90;;;;;;5034753;28;20779;-64
2023/05/24 04:30:02;;;;;;;12.03;3.50;;;9.00;99.90;;;;;;5006634;28;20232;-64
2023/05/24 04:32:29;;;;;;;15.87;4.17;;;9.10;99.90;;;;;;5028131;28;20201;-64
2023/05/24 04:34:57;;;;;;;13.70;3.60;;;9.10;99.90;;;;;;5021319;28;20229;-64
2023/05/24 04:37:24;;;;;;;17.10;4.33;;;9.00;99.90;;;;;;5048429;28;21106;-64
2023/05/24 04:39:50;;;;;;;13.23;4.53;;;9.10;99.90;;;;;;5023081;28;20216;-64
2023/05/24 04:42:17;;;;;;;15.23;4.10;;;9.10;99.90;;;;;;5013578;28;20276;-64
2023/05/24 04:44:44;;;;;;;17.27;4.43;;;9.10;99.90;;;;;;5011392;28;21485;-64
2023/05/24 04:47:11;;;;;;;22.93;4.87;;;9.10;99.90;;;;;;5022339;28;20205;-64
2023/05/24 04:49:38;;;;;;;15.63;4.57;;;9.10;99.90;;;;;;5018435;28;20522;-65
2023/05/24 04:52:07;;;;;;;12.63;3.87;;;9.20;99.90;;;;;;5015152;28;20216;-64
2023/05/24 04:54:34;;;;;;;11.97;3.83;;;9.20;99.90;;;;;;5012021;28;20329;-63
2023/05/24 04:57:00;;;;;;;15.13;4.10;;;9.20;99.90;;;;;;5034066;28;20828;-64
2023/05/24 04:59:27;;;;;;;18.40;4.07;;;9.20;99.90;;;;;;5027916;28;20216;-64
2023/05/24 05:01:54;;;;;;;20.17;4.13;;;9.20;99.90;;;;;;5006105;28;20216;-64
2023/05/24 05:04:21;;;;;;;16.65;4.03;;;9.20;99.90;;;;;;5018105;28;20257;-64
2023/05/24 05:06:47;;;;;;;14.63;4.80;;;9.20;99.90;;;;;;4988724;28;20228;-65
2023/05/24 05:09:16;;;;;;;12.37;3.90;;;9.30;99.90;;;;;;5030399;28;20228;-64
2023/05/24 05:11:43;;;;;;;17.42;4.25;;;9.30;99.90;;;;;;5019793;28;20346;-64
2023/05/24 05:14:10;;;;;;;21.33;5.00;;;9.30;99.90;;;;;;5030601;28;21944;-64
2023/05/24 05:16:38;;;;;;;14.17;3.73;;;9.30;99.90;;;;;;4998676;28;20339;-65
2023/05/24 05:19:05;;;;;;;18.57;5.10;;;9.80;99.90;;;;;;5003663;28;20252;-65
2023/05/24 05:21:32;;;;;;;14.27;4.10;;;9.30;99.90;;;;;;5037549;28;20217;-64
2023/05/24 05:23:59;;;;;;;21.33;4.90;;;9.30;99.90;;;;;;5029918;28;20305;-64
2023/05/24 05:26:28;;;;;;;25.83;4.97;;;9.30;99.90;;;;;;5022495;28;20236;-64
2023/05/24 05:28:55;;;;;;;20.73;4.90;;;9.30;99.90;;;;;;5029962;28;20228;-65
2023/05/24 05:31:22;;;;;;;12.27;3.63;;;9.30;99.90;;;;;;5038569;28;20212;-65
2023/05/24 05:33:49;;;;;;;26.20;4.50;;;9.30;99.90;;;;;;5003850;28;20227;-66
2023/05/24 05:36:16;;;;;;;16.40;4.17;;;9.30;99.90;;;;;;5034111;28;20865;-65
2023/05/24 05:38:43;;;;;;;18.90;4.27;;;9.30;99.90;;;;;;5042076;28;20218;-65
2023/05/24 05:41:10;;;;;;;20.90;5.57;;;9.30;99.90;;;;;;5015980;28;20201;-65
2023/05/24 05:43:39;;;;;;;21.60;5.53;;;9.30;99.90;;;;;;5038651;28;20201;-65
2023/05/24 05:46:06;;;;;;;12.85;4.93;;;9.30;99.90;;;;;;5028387;28;20217;-65
2023/05/24 05:48:33;;;;;;;17.87;4.50;;;9.40;99.90;;;;;;5008410;28;20217;-65
2023/05/24 05:50:59;;;;;;;19.77;4.53;;;9.40;99.90;;;;;;5041378;28;20243;-65
2023/05/24 05:53:26;;;;;;;20.95;4.57;;;9.40;99.90;;;;;;5041841;28;20401;-65
2023/05/24 05:55:53;;;;;;;13.27;4.30;;;9.40;99.90;;;;;;5046211;28;20197;-65
2023/05/24 05:58:20;;;;;;;16.20;4.05;;;9.40;99.90;;;;;;5016863;28;20212;-66
2023/05/24 06:00:48;;;;;;;19.30;4.07;;;9.50;99.90;;;;;;5045478;28;20211;-65
2023/05/24 06:03:15;;;;;;;14.77;4.13;;;9.40;99.90;;;;;;5017396;28;20981;-65
2023/05/24 06:05:42;;;;;;;16.23;4.10;;;9.50;99.90;;;;;;5031785;28;20201;-65
2023/05/24 06:08:08;;;;;;;13.30;3.40;;;9.50;99.90;;;;;;5019156;28;20201;-66
2023/05/24 06:10:35;;;;;;;12.53;3.63;;;9.50;99.90;;;;;;5038060;28;20434;-65
2023/05/24 06:13:03;;;;;;;17.67;5.10;;;9.50;99.90;;;;;;5018305;28;20246;-66
2023/05/24 06:15:32;;;;;;;19.13;4.80;;;9.60;99.90;;;;;;5045108;28;20201;-66
2023/05/24 06:18:00;;;;;;;13.25;3.58;;;9.60;99.90;;;;;;5048183;28;20201;-65
2023/05/24 06:20:27;;;;;;;16.80;4.00;;;9.60;99.90;;;;;;5011503;28;20350;-65
2023/05/24 06:22:54;;;;;;;19.38;4.25;;;9.60;99.90;;;;;;5053334;28;20348;-65
2023/05/24 06:25:23;;;;;;;18.83;4.67;;;9.60;99.90;;;;;;5039328;28;20575;-65
2023/05/24 06:27:49;;;;;;;12.43;3.97;;;9.60;99.90;;;;;;5029843;28;20209;-65
2023/05/24 06:30:17;;;;;;;24.03;5.70;;;9.50;99.90;;;;;;5038488;28;20229;-65
2023/05/24 06:32:43;;;;;;;21.97;4.17;;;9.60;99.90;;;;;;5051753;28;20394;-65
2023/05/24 06:35:12;;;;;;;19.92;4.40;;;9.60;99.90;;;;;;5015942;28;20355;-65
2023/05/24 06:37:38;;;;;;;12.30;4.30;;;9.60;99.90;;;;;;5048759;28;20570;-65
2023/05/24 06:40:08;;;;;;;19.73;5.13;;;9.60;99.90;;;;;;5048262;28;20208;-65
2023/05/24 06:42:35;;;;;;;15.90;4.10;;;9.60;99.90;;;;;;5016920;28;21089;-66
2023/05/24 06:45:02;;;;;;;16.30;4.13;;;9.60;99.90;;;;;;5038783;28;20212;-65
2023/05/24 06:47:29;;;;;;;21.90;4.80;;;9.60;99.90;;;;;;5037079;28;20255;-65
2023/05/24 06:49:55;;;;;;;19.83;4.83;;;9.70;99.90;;;;;;5019906;28;20236;-66
2023/05/24 06:52:24;;;;;;;17.20;4.73;;;9.80;99.90;;;;;;5046948;28;20895;-65
2023/05/24 06:54:50;;;;;;;15.02;4.57;;;9.80;99.90;;;;;;5045075;28;20201;-65
2023/05/24 06:57:17;;;;;;;23.65;4.38;;;9.90;99.90;;;;;;5032922;28;20201;-65
2023/05/24 06:59:44;;;;;;;16.90;4.20;;;9.90;99.90;;;;;;5032007;28;20603;-66
2023/05/24 07:02:11;;;;;;;18.27;4.57;;;10.00;99.90;;;;;;5045128;28;20587;-65
2023/05/24 07:04:39;;;;;;;13.77;4.27;;;10.00;99.90;;;;;;5013382;28;20209;-66
2023/05/24 07:07:06;;;;;;;21.60;5.50;;;10.10;99.90;;;;;;5051508;28;20280;-65
2023/05/24 07:09:35;;;;;;;16.67;4.80;;;10.10;99.90;;;;;;5047585;28;20229;-65
2023/05/24 07:12:02;;;;;;;20.73;4.72;;;10.20;99.90;;;;;;5037793;28;20204;-66
2023/05/24 07:14:29;;;;;;;17.23;3.97;;;10.20;99.90;;;;;;5026661;28;20890;-65
2023/05/24 07:16:58;;;;;;;24.90;4.63;;;10.20;99.90;;;;;;5045932;28;20232;-65
2023/05/24 07:19:27;;;;;;;17.88;4.30;;;10.30;99.90;;;;;;5043674;28;20283;-66
2023/05/24 07:21:54;;;;;;;21.67;5.03;;;10.30;99.90;;;;;;5016835;28;20217;-66
2023/05/24 07:24:22;;;;;;;19.13;4.85;;;10.40;99.90;;;;;;5043039;28;20291;-66
2023/05/24 07:26:52;;;;;;;17.83;4.90;;;10.40;99.90;;;;;;5032853;28;20205;-66
2023/05/24 07:29:20;;;;;;;22.95;4.82;;;10.40;99.90;;;;;;5036866;28;20221;-66
2023/05/24 07:31:47;;;;;;;19.17;4.55;;;10.50;99.90;;;;;;5041240;28;20210;-65
2023/05/24 07:34:13;;;;;;;17.65;4.35;;;10.50;99.90;;;;;;5046565;28;20200;-66
2023/05/24 07:36:41;;;;;;;18.23;5.07;;;10.50;99.90;;;;;;5010668;28;21558;-66
2023/05/24 07:39:08;;;;;;;30.70;5.65;;;10.50;99.90;;;;;;5049491;28;20508;-66
2023/05/24 07:41:35;;;;;;;25.15;4.60;;;10.50;99.90;;;;;;5042464;28;20637;-66
2023/05/24 07:44:04;;;;;;;19.52;4.57;;;10.60;99.90;;;;;;5029298;28;20304;-66
2023/05/24 07:46:31;;;;;;;15.38;4.57;;;10.60;99.90;;;;;;5028822;28;20224;-66
2023/05/24 07:48:58;;;;;;;14.35;4.28;;;10.60;99.90;;;;;;5048812;28;20200;-66
2023/05/24 07:51:25;;;;;;;21.80;4.40;;;10.60;99.90;;;;;;5018565;28;20227;-66
2023/05/24 07:53:52;;;;;;;14.32;4.85;;;10.70;99.90;;;;;;5045662;28;20670;-66
2023/05/24 07:56:20;;;;;;;24.08;4.68;;;10.70;99.90;;;;;;5042652;28;20240;-65
2023/05/24 07:58:48;;;;;;;17.65;4.57;;;10.60;99.90;;;;;;5037102;28;20695;-66
2023/05/24 08:01:17;;;;;;;24.02;4.72;;;10.60;99.90;;;;;;5039637;28;20189;-66
2023/05/24 08:03:44;;;;;;;14.73;4.55;;;10.70;99.90;;;;;;5034643;28;20278;-65
2023/05/24 08:06:11;;;;;;;23.98;4.88;;;10.70;99.90;;;;;;5039485;28;20193;-66
2023/05/24 08:08:39;;;;;;;20.15;4.18;;;10.70;99.90;;;;;;5022755;28;20208;-66
2023/05/24 08:11:06;;;;;;;28.75;5.43;;;10.70;99.90;;;;;;5046987;28;20699;-65
2023/05/24 08:13:33;;;;;;;20.17;4.35;;;10.80;99.90;;;;;;5029439;28;20799;-66
2023/05/24 08:16:00;;;;;;;26.25;4.75;;;10.70;99.90;;;;;;5047910;28;20193;-65
2023/05/24 08:18:28;;;;;;;23.83;5.22;;;10.80;99.90;;;;;;5024711;28;20866;-66
2023/05/24 08:20:55;;;;;;;23.70;4.80;;;10.70;99.90;;;;;;5042616;28;20244;-66
2023/05/24 08:23:21;;;;;;;27.17;4.50;;;10.80;99.90;;;;;;5010307;28;20562;-65
2023/05/24 08:25:48;;;;;;;18.58;4.60;;;10.80;99.90;;;;;;5044817;28;20621;-65
2023/05/24 08:28:15;;;;;;;16.30;5.05;;;10.80;99.90;;;;;;5039834;28;20227;-66
2023/05/24 08:30:42;;;;;;;23.92;5.00;;;10.80;99.90;;;;;;5035044;28;20221;-65
2023/05/24 08:33:09;;;;;;;20.05;5.10;;;10.80;99.90;;;;;;5024774;28;20201;-65
2023/05/24 08:35:37;;;;;;;17.88;4.55;;;10.80;99.90;;;;;;5041142;28;20220;-66
2023/05/24 08:38:04;;;;;;;14.60;4.57;;;10.90;99.90;;;;;;5014531;28;20208;-66
2023/05/24 08:40:31;;;;;;;25.63;4.47;;;10.90;99.90;;;;;;5047192;28;20557;-65
2023/05/24 08:43:01;;;;;;;14.00;3.95;;;10.90;99.90;;;;;;5046195;28;20211;-66
2023/05/24 08:45:31;;;;;;;24.77;4.82;;;11.00;99.90;;;;;;5031259;28;20201;-66
2023/05/24 08:47:59;;;;;;;18.52;4.20;;;11.00;99.90;;;;;;5045800;28;20220;-65
2023/05/24 08:50:26;;;;;;;17.40;4.72;;;11.00;99.90;;;;;;5024005;28;20238;-66
2023/05/24 08:52:55;;;;;;;22.65;5.18;;;11.00;99.90;;;;;;5045467;28;20196;-65
2023/05/24 08:55:23;;;;;;;20.10;4.25;;;11.00;99.90;;;;;;5010598;28;20204;-65
2023/05/24 08:57:50;;;;;;;17.98;5.55;;;11.00;99.90;;;;;;5044230;28;20202;-66
2023/05/24 09:00:18;;;;;;;19.08;5.18;;;11.00;99.90;;;;;;5043042;28;20206;-66
2023/05/24 09:02:46;;;;;;;16.23;3.97;;;11.00;99.90;;;;;;5038366;28;20702;-65
2023/05/24 09:05:15;;;;;;;20.58;5.22;;;11.00;99.90;;;;;;5022805;28;20229;-65
2023/05/24 09:07:44;;;;;;;17.35;5.07;;;11.00;99.90;;;;;;5045290;28;20435;-66
2023/05/24 09:10:13;;;;;;;21.48;4.70;;;11.00;99.90;;;;;;5015521;28;20224;-66
2023/05/24 09:12:45;;;;;;;11.73;4.00;;;11.00;99.90;;;;;;5039424;28;20706;-66
2023/05/24 09:15:12;;;;;;;21.25;5.10;;;11.00;99.90;;;;;;5043033;28;20192;-66
2023/05/24 09:17:39;;;;;;;16.95;4.47;;;11.00;99.90;;;;;;5029871;28;20700;-65
2023/05/24 09:20:09;;;;;;;17.92;4.85;;;11.00;99.90;;;;;;5028137;28;20700;-66
2023/05/24 09:22:36;;;;;;;25.88;4.65;;;11.10;99.90;;;;;;5042549;28;20225;-65
2023/05/24 09:25:05;;;;;;;18.93;4.73;;;11.10;99.90;;;;;;5023871;28;20193;-66
2023/05/24 09:27:34;;;;;;;23.05;5.00;;;11.10;99.90;;;;;;5036683;28;20207;-65
2023/05/24 09:30:04;;;;;;;24.15;4.63;;;11.10;99.90;;;;;;5040385;28;20201;-65
2023/05/24 09:32:31;;;;;;;24.98;4.68;;;11.10;99.90;;;;;;5032097;28;20873;-65
2023/05/24 09:34:58;;;;;;;15.57;4.45;;;11.10;99.90;;;;;;5035827;28;20245;-66
2023/05/24 09:37:28;;;;;;;22.42;5.97;;;11.10;99.90;;;;;;5036369;28;20197;-65
2023/05/24 09:39:56;;;;;;;18.50;4.63;;;11.20;99.90;;;;;;5043787;28;20265;-66
2023/05/24 09:42:26;;;;;;;20.98;5.18;;;11.30;99.90;;;;;;5008979;28;20733;-66
2023/05/24 09:45:01;;;;;;;24.52;5.15;;;11.40;99.90;;;;;;5037092;28;20315;-66
2023/05/24 09:47:31;;;;;;;22.58;5.78;;;11.40;99.90;;;;;;5031258;28;20364;-65
2023/05/24 09:49:59;;;;;;;22.80;5.22;;;11.40;99.90;;;;;;5041645;28;20202;-66
2023/05/24 09:52:25;;;;;;;17.88;4.57;;;11.50;99.90;;;;;;5027149;28;20424;-66
2023/05/24 09:54:52;;;;;;;24.38;4.97;;;11.60;99.90;;;;;;5041483;28;20197;-66
2023/05/24 09:57:21;;;;;;;13.70;4.72;;;11.60;99.90;;;;;;5007442;28;20216;-65
2023/05/24 09:59:49;;;;;;;20.55;5.55;;;11.60;99.90;;;;;;5044896;28;20453;-65
2023/05/24 10:02:19;;;;;;;20.95;4.53;;;11.60;99.90;;;;;;5028254;28;20286;-66
2023/05/24 10:04:46;;;;;;;25.30;4.15;;;11.60;99.90;;;;;;5041995;28;20193;-65
2023/05/24 10:07:15;;;;;;;10.20;3.78;;;11.70;99.90;;;;;;5027449;28;20406;-65
2023/05/24 10:09:44;;;;;;;22.13;4.00;;;11.70;99.90;;;;;;5044616;28;20201;-65
2023/05/24 10:12:11;;;;;;;15.02;3.85;;;11.70;99.90;;;;;;5004457;28;20228;-65
2023/05/24 10:14:38;;;;;;;16.58;4.25;;;11.70;99.90;;;;;;5019155;28;20223;-65
2023/05/24 10:17:06;;;;;;;15.48;3.33;;;11.70;99.90;;;;;;5034556;22;20258;-65
2023/05/24 10:19:35;;;;;;;18.95;4.15;;;11.70;99.90;;;;;;5005134;28;20232;-65
2023/05/24 10:22:06;;;;;;;22.42;4.30;;;11.70;99.90;;;;;;5021113;28;21007;-66
2023/05/24 10:24:38;;;;;;;19.20;4.68;;;11.70;99.90;;;;;;5046253;28;20208;-65
2023/05/24 10:27:12;;;;;;;20.85;4.28;;;11.70;99.90;;;;;;5039032;28;20252;-65
2023/05/24 10:29:49;;;;;;;17.25;4.22;;;11.70;99.90;;;;;;5014530;28;20712;-65
2023/05/24 10:32:18;;;;;;;20.20;4.15;;;11.80;99.90;;;;;;5031612;28;20663;-66
2023/05/24 10:34:47;;;;;;;17.33;3.97;;;11.80;99.90;;;;;;5034653;22;20238;-65
2023/05/24 10:37:16;;;;;;;17.45;4.45;;;11.70;99.90;;;;;;5048114;28;20208;-65
2023/05/24 10:39:43;;;;;;;19.80;4.38;;;11.70;99.90;;;;;;5026623;28;20229;-66
2023/05/24 10:42:12;;;;;;;16.50;4.55;;;11.70;99.90;;;;;;5045663;28;20223;-66
2023/05/24 10:44:39;;;;;;;16.77;5.13;;;11.60;99.90;;;;;;5012492;28;20206;-65
2023/05/24 10:47:10;;;;;;;16.23;4.57;;;11.70;99.90;;;;;;5047116;28;20205;-65
2023/05/24 10:49:38;;;;;;;18.95;4.47;;;11.60;99.90;;;;;;5030506;28;20225;-65
2023/05/24 10:52:09;;;;;;;14.55;4.13;;;11.60;99.90;;;;;;5049315;28;20321;-65
2023/05/24 10:54:37;;;;;;;18.60;4.32;;;11.70;99.90;;;;;;5019602;28;20225;-65
2023/05/24 10:57:04;;;;;;;19.85;4.40;;;11.70;99.90;;;;;;5040927;28;20205;-65
2023/05/24 10:59:38;;;;;;;20.55;4.22;;;11.80;99.90;;;;;;5012934;28;20212;-65
2023/05/24 11:02:08;;;;;;;18.45;5.18;;;11.80;99.90;;;;;;5039896;28;20407;-66
2023/05/24 11:04:38;;;;;;;16.63;4.80;;;11.80;99.90;;;;;;5021779;28;20520;-65
2023/05/24 11:07:08;;;;;;;23.20;4.78;;;11.80;99.90;;;;;;5036902;28;20919;-66
2023/05/24 11:09:37;;;;;;;18.50;4.32;;;11.80;99.90;;;;;;5030839;28;20224;-65
2023/05/24 11:12:07;;;;;;;18.92;5.10;;;11.80;99.90;;;;;;5040345;28;20724;-65
2023/05/24 11:14:38;;;;;;;14.32;4.55;;;11.70;99.90;;;;;;5042986;28;20201;-65
2023/05/24 11:17:05;;;;;;;12.43;4.47;;;11.80;99.90;;;;;;5015098;28;20419;-65
2023/05/24 11:19:34;;;;;;;19.67;4.70;;;11.80;99.90;;;;;;5027241;28;20213;-65
2023/05/24 11:22:03;;;;;;;15.15;4.15;;;11.90;99.90;;;;;;5036358;28;20801;-65
2023/05/24 11:24:30;;;;;;;20.63;4.63;;;11.80;99.90;;;;;;5045852;28;20201;-65
2023/05/24 11:26:59;;;;;;;17.95;4.53;;;11.90;99.90;;;;;;5016674;28;20208;-65
2023/05/24 11:29:26;;;;;;;14.50;4.35;;;11.90;99.90;;;;;;5044555;28;20205;-65
2023/05/24 11:31:56;;;;;;;17.45;4.78;;;11.90;99.90;;;;;;5005225;28;20689;-66
2023/05/24 11:34:25;;;;;;;13.40;4.60;;;11.90;99.90;;;;;;5033814;28;20220;-65
2023/05/24 11:36:53;;;;;;;13.43;4.68;;;11.90;99.90;;;;;;5032025;28;20971;-65
2023/05/24 11:39:20;;;;;;;17.95;4.30;;;11.90;99.90;;;;;;5044489;28;20207;-65
2023/05/24 11:41:47;;;;;;;22.30;5.50;;;11.90;99.90;;;;;;5028788;28;20193;-65
2023/05/24 11:44:18;;;;;;;15.60;4.63;;;11.80;99.90;;;;;;5046984;28;20705;-65
2023/05/24 11:46:46;;;;;;;20.13;5.45;;;11.80;99.90;;;;;;5022728;28;20254;-65
2023/05/24 11:49:13;;;;;;;14.75;4.45;;;11.70;99.90;;;;;;5038091;28;20581;-66
2023/05/24 11:51:40;;;;;;;12.65;5.07;;;11.60;99.90;;;;;;5031974;28;20248;-65
2023/05/24 11:54:07;;;;;;;19.83;4.80;;;11.60;99.90;;;;;;5042272;28;20219;-65
2023/05/24 11:56:34;;;;;;;14.00;3.95;;;11.70;99.90;;;;;;5043264;28;20777;-65
2023/05/24 11:59:11;;;;;;;16.45;4.90;;;11.70;99.90;;;;;;5025184;28;20216;-65
2023/05/24 12:01:40;;;;;;;18.27;4.60;;;11.80;99.90;;;;;;5044878;28;20230;-65
2023/05/24 12:04:08;;;;;;;15.88;4.18;;;11.70;99.90;;;;;;5013042;28;20958;-65
2023/05/24 12:06:36;;;;;;;13.93;4.75;;;11.80;99.90;;;;;;5032256;28;20193;-66
2023/05/24 12:09:07;;;;;;;18.63;5.22;;;11.80;99.90;;;;;;5037096;28;20503;-65
2023/05/24 12:11:34;;;;;;;17.27;4.32;;;11.80;99.90;;;;;;5045493;28;20690;-65
2023/05/24 12:14:01;;;;;;;13.90;4.82;;;11.80;99.90;;;;;;5025114;28;20664;-65
2023/05/24 12:16:30;;;;;;;16.98;4.45;;;11.90;99.90;;;;;;5038810;28;20225;-65
2023/05/24 12:18:59;;;;;;;8.93;3.95;;;11.90;99.90;;;;;;5011204;28;20205;-66
2023/05/24 12:21:30;;;;;;;12.98;4.28;;;11.90;99.90;;;;;;5045162;28;20693;-65
2023/05/24 12:23:57;;;;;;;13.07;4.05;;;11.90;99.90;;;;;;5028138;28;20543;-65
2023/05/24 12:26:24;;;;;;;13.10;4.43;;;11.90;99.90;;;;;;5032684;28;20201;-65
2023/05/24 12:28:54;;;;;;;16.33;4.57;;;12.00;99.90;;;;;;5019714;28;20205;-66
2023/05/24 12:31:21;;;;;;;24.75;4.63;;;11.90;99.90;;;;;;5045037;28;20224;-65
2023/05/24 12:33:48;;;;;;;19.15;5.10;;;12.00;99.90;;;;;;5013153;28;20237;-66
2023/05/24 12:36:17;;;;;;;14.93;4.25;;;12.00;99.90;;;;;;5041500;28;20204;-65
2023/05/24 12:38:44;;;;;;;15.43;4.28;;;12.00;99.90;;;;;;5027705;28;20723;-66
2023/05/24 12:41:12;;;;;;;16.20;4.03;;;12.00;99.90;;;;;;5040118;28;20463;-65
2023/05/24 12:43:39;;;;;;;13.48;3.67;;;12.10;99.90;;;;;;5037982;28;20204;-65
2023/05/24 12:46:06;;;;;;;13.60;4.30;;;12.10;99.90;;;;;;5033591;28;20429;-65